createdAt,value
2023-03-05T00:01:34.989Z,-1.10
2023-03-05T00:04:04.675Z,-1.10
2023-03-05T00:06:34.478Z,-1.20
2023-03-05T00:09:03.423Z,-1.10
2023-03-05T00:11:33.528Z,-1.10
2023-03-05T00:14:03.624Z,-1.10
2023-03-05T00:16:34.223Z,-1.20
2023-03-05T00:19:03.386Z,-1.20
2023-03-05T00:21:33.082Z,-1.20
2023-03-05T00:24:02.667Z,-1.20
2023-03-05T00:26:34.597Z,-1.20
2023-03-05T00:29:05.277Z,-1.20
2023-03-05T00:31:36.193Z,-1.10
2023-03-05T00:34:07.511Z,-1.20
2023-03-05T00:36:36.650Z,-1.20
2023-03-05T00:39:05.410Z,-1.20
2023-03-05T00:41:34.113Z,-1.30
2023-03-05T00:44:02.640Z,-1.30
2023-03-05T00:46:31.131Z,-1.30
2023-03-05T00:49:00.875Z,-1.30
2023-03-05T00:51:29.304Z,-1.30
2023-03-05T00:54:00.837Z,-1.30
2023-03-05T00:56:29.444Z,-1.30
2023-03-05T00:58:57.783Z,-1.20
2023-03-05T01:01:26.708Z,-1.30
2023-03-05T01:03:58.277Z,-1.20
2023-03-05T01:06:28.118Z,-1.30
2023-03-05T01:08:56.844Z,-1.20
2023-03-05T01:11:25.243Z,-1.20
2023-03-05T01:13:53.546Z,-1.20
2023-03-05T01:16:21.811Z,-1.20
2023-03-05T01:18:50.117Z,-1.20
2023-03-05T01:21:18.407Z,-1.20
2023-03-05T01:23:48.470Z,-1.20
2023-03-05T01:26:16.748Z,-1.20
2023-03-05T01:28:45.309Z,-1.20
2023-03-05T01:31:13.980Z,-1.30
2023-03-05T01:33:44.788Z,-1.30
2023-03-05T01:36:16.944Z,-1.20
2023-03-05T01:38:46.917Z,-1.30
2023-03-05T01:41:17.708Z,-1.20
2023-03-05T01:43:52.985Z,-1.30
2023-03-05T01:46:31.982Z,-1.30
2023-03-05T01:49:09.677Z,-1.30
2023-03-05T01:51:42.233Z,-1.30
2023-03-05T01:54:13.055Z,-1.20
2023-03-05T01:56:43.522Z,-1.40
2023-03-05T01:59:13.417Z,-1.30
2023-03-05T02:01:45.495Z,-1.30
2023-03-05T02:04:18.370Z,-1.30
2023-03-05T02:06:49.930Z,-1.30
2023-03-05T02:09:18.583Z,-1.30
2023-03-05T02:11:48.275Z,-1.30
2023-03-05T02:14:16.783Z,-1.30
2023-03-05T02:16:45.091Z,-1.30
2023-03-05T02:19:14.299Z,-1.40
2023-03-05T02:21:46.513Z,-1.50
2023-03-05T02:24:16.084Z,-1.40
2023-03-05T02:26:45.836Z,-1.50
2023-03-05T02:29:19.579Z,-1.50
2023-03-05T02:31:47.906Z,-1.50
2023-03-05T02:34:18.481Z,-1.30
2023-03-05T02:36:50.368Z,-1.50
2023-03-05T02:39:19.389Z,-1.40
2023-03-05T02:41:47.952Z,-1.40
2023-03-05T02:44:16.284Z,-1.50
2023-03-05T02:46:44.688Z,-1.40
2023-03-05T02:49:13.073Z,-1.40
2023-03-05T02:51:41.480Z,-1.40
2023-03-05T02:54:11.623Z,-1.40
2023-03-05T02:56:43.574Z,-1.40
2023-03-05T02:59:12.004Z,-1.40
2023-03-05T03:01:40.503Z,-1.50
2023-03-05T03:04:08.827Z,-1.40
2023-03-05T03:06:37.194Z,-1.50
2023-03-05T03:09:08.016Z,-1.50
2023-03-05T03:11:37.686Z,-1.40
2023-03-05T03:14:05.963Z,-1.50
2023-03-05T03:16:36.907Z,-1.50
2023-03-05T03:19:06.052Z,-1.40
2023-03-05T03:21:34.422Z,-1.30
2023-03-05T03:24:02.818Z,-1.40
2023-03-05T03:26:31.963Z,-1.50
2023-03-05T03:29:01.699Z,-1.40
2023-03-05T03:31:29.967Z,-1.40
2023-03-05T03:33:58.234Z,-1.40
2023-03-05T03:36:26.573Z,-1.30
2023-03-05T03:38:57.182Z,-1.50
2023-03-05T03:41:25.489Z,-1.40
2023-03-05T03:43:53.771Z,-1.40
2023-03-05T03:46:23.548Z,-1.40
2023-03-05T03:48:52.150Z,-1.50
2023-03-05T03:51:20.586Z,-1.50
2023-03-05T03:53:49.466Z,-1.40
2023-03-05T03:56:17.734Z,-1.50
2023-03-05T03:58:46.437Z,-1.40
2023-03-05T04:01:14.702Z,-1.50
2023-03-05T04:03:44.346Z,-1.50
2023-03-05T04:06:12.931Z,-1.50
2023-03-05T04:08:41.336Z,-1.50
2023-03-05T04:11:09.794Z,-1.50
2023-03-05T04:13:38.157Z,-1.50
2023-03-05T04:16:07.407Z,-1.50
2023-03-05T04:18:35.736Z,-1.50
2023-03-05T04:21:05.727Z,-1.50
2023-03-05T04:23:34.044Z,-1.40
2023-03-05T04:26:02.419Z,-1.40
2023-03-05T04:28:30.699Z,-1.40
2023-03-05T04:31:02.128Z,-1.50
2023-03-05T04:33:30.445Z,-1.40
2023-03-05T04:35:58.810Z,-1.50
2023-03-05T04:38:28.579Z,-1.50
2023-03-05T04:40:56.850Z,-1.50
2023-03-05T04:43:25.170Z,-1.50
2023-03-05T04:45:53.441Z,-1.30
2023-03-05T04:48:21.798Z,-1.50
2023-03-05T04:50:50.199Z,-1.40
2023-03-05T04:53:18.530Z,-1.30
2023-03-05T04:55:53.128Z,-1.30
2023-03-05T04:58:21.523Z,-1.30
2023-03-05T05:00:49.814Z,-1.30
2023-03-05T05:03:18.274Z,-1.20
2023-03-05T05:05:46.632Z,-1.30
2023-03-05T05:08:14.986Z,-1.20
2023-03-05T05:10:43.222Z,-1.20
2023-03-05T05:13:12.867Z,-1.20
2023-03-05T05:15:41.940Z,-1.10
2023-03-05T05:18:10.278Z,-1.10
2023-03-05T05:20:39.561Z,-1.10
2023-03-05T05:23:07.857Z,-1.20
2023-03-05T05:25:36.160Z,-1.20
2023-03-05T05:28:07.484Z,-1.20
2023-03-05T05:30:37.239Z,-1.10
2023-03-05T05:33:05.548Z,-1.10
2023-03-05T05:35:40.022Z,-1.10
2023-03-05T05:38:08.322Z,-1.20
2023-03-05T05:40:36.653Z,-1.10
2023-03-05T05:43:05.050Z,-1.10
2023-03-05T05:45:33.632Z,-1.20
2023-03-05T05:48:03.352Z,-1.10
2023-03-05T05:50:39.111Z,-1.10
2023-03-05T05:53:07.570Z,-1.10
2023-03-05T05:55:35.873Z,-0.90
2023-03-05T05:58:04.183Z,-1.00
2023-03-05T06:00:32.464Z,-1.00
2023-03-05T06:03:02.114Z,-0.90
2023-03-05T06:05:30.546Z,-0.80
2023-03-05T06:07:58.839Z,-0.90
2023-03-05T06:10:27.553Z,-0.80
2023-03-05T06:12:55.773Z,-0.80
2023-03-05T06:15:27.233Z,-0.80
2023-03-05T06:18:04.385Z,-0.70
2023-03-05T06:20:32.761Z,-0.70
2023-03-05T06:23:00.980Z,-0.60
2023-03-05T06:25:29.265Z,-0.50
2023-03-05T06:27:57.532Z,-0.40
2023-03-05T06:30:28.940Z,-0.40
2023-03-05T06:32:57.281Z,-0.30
2023-03-05T06:35:26.989Z,-0.20
2023-03-05T06:37:55.318Z,0.00
2023-03-05T06:40:23.597Z,0.10
2023-03-05T06:42:51.889Z,0.30
2023-03-05T06:45:20.304Z,0.30
2023-03-05T06:47:48.570Z,0.50
2023-03-05T06:50:17.051Z,0.60
2023-03-05T06:52:49.802Z,0.80
2023-03-05T06:55:18.744Z,1.00
2023-03-05T06:57:47.368Z,1.00
2023-03-05T07:00:16.445Z,1.20
2023-03-05T07:02:44.879Z,1.20
2023-03-05T07:05:15.610Z,1.30
2023-03-05T07:07:43.924Z,1.40
2023-03-05T07:10:14.119Z,1.60
2023-03-05T07:12:43.565Z,1.60
2023-03-05T07:15:12.788Z,1.70
2023-03-05T07:17:41.007Z,1.90
2023-03-05T07:20:11.039Z,2.00
2023-03-05T07:22:39.722Z,2.10
2023-03-05T07:25:08.931Z,2.30
2023-03-05T07:27:39.189Z,2.50
2023-03-05T07:30:08.943Z,2.60
2023-03-05T07:32:37.574Z,2.70
2023-03-05T07:35:09.491Z,2.90
2023-03-05T07:37:37.908Z,3.10
2023-03-05T07:40:07.039Z,3.20
2023-03-05T07:42:35.599Z,3.30
2023-03-05T07:45:23.915Z,3.40
2023-03-05T07:47:52.675Z,3.50
2023-03-05T07:50:21.122Z,3.60
2023-03-05T07:52:49.422Z,3.60
2023-03-05T07:55:17.947Z,3.70
2023-03-05T07:57:46.199Z,3.80
2023-03-05T08:00:15.424Z,3.70
2023-03-05T08:02:46.231Z,3.70
2023-03-05T08:05:14.654Z,3.80
2023-03-05T08:07:42.998Z,3.80
2023-03-05T08:10:15.126Z,3.80
2023-03-05T08:12:43.410Z,3.70
2023-03-05T08:15:12.827Z,3.70
2023-03-05T08:17:41.314Z,3.70
2023-03-05T08:20:12.540Z,3.60
2023-03-05T08:22:43.349Z,3.60
2023-03-05T08:25:12.207Z,3.60
2023-03-05T08:27:41.790Z,3.50
2023-03-05T08:30:14.226Z,3.50
2023-03-05T08:32:43.123Z,3.50
2023-03-05T08:35:13.365Z,3.40
2023-03-05T08:37:41.620Z,3.40
2023-03-05T08:40:12.857Z,3.40
2023-03-05T08:42:43.433Z,3.30
2023-03-05T08:45:12.919Z,3.30
2023-03-05T08:47:41.430Z,3.30
2023-03-05T08:50:12.913Z,3.30
2023-03-05T08:52:41.318Z,3.30
2023-03-05T08:55:10.414Z,3.30
2023-03-05T08:57:38.798Z,3.20
2023-03-05T09:00:10.290Z,3.10
2023-03-05T09:02:38.734Z,3.10
2023-03-05T09:05:07.851Z,3.10
2023-03-05T09:07:38.500Z,3.10
2023-03-05T09:10:07.710Z,3.10
2023-03-05T09:12:36.177Z,3.10
2023-03-05T09:15:04.824Z,3.10
2023-03-05T09:17:33.103Z,3.20
2023-03-05T09:20:01.388Z,3.20
2023-03-05T09:22:32.027Z,3.20
2023-03-05T09:25:01.696Z,3.20
2023-03-05T09:27:29.986Z,3.30
2023-03-05T09:29:58.309Z,3.30
2023-03-05T09:32:26.693Z,3.30
2023-03-05T09:34:55.072Z,3.30
2023-03-05T09:37:23.391Z,3.40
2023-03-05T09:39:51.878Z,3.40
2023-03-05T09:42:34.504Z,3.50
2023-03-05T09:45:14.790Z,3.50
2023-03-05T09:48:00.788Z,3.40
2023-03-05T09:50:37.744Z,3.50
2023-03-05T09:53:16.598Z,3.50
2023-03-05T09:55:48.519Z,3.60
2023-03-05T09:58:27.443Z,3.60
2023-03-05T10:01:01.423Z,3.60
2023-03-05T10:03:35.057Z,3.70
2023-03-05T10:06:10.944Z,3.70
2023-03-05T10:08:49.954Z,3.70
2023-03-05T10:11:43.986Z,3.70
2023-03-05T10:14:17.365Z,3.80
2023-03-05T10:17:07.758Z,3.80
2023-03-05T10:19:56.519Z,3.80
2023-03-05T10:22:31.073Z,3.80
2023-03-05T10:25:18.482Z,3.70
2023-03-05T10:27:54.410Z,3.60
2023-03-05T10:30:35.368Z,3.60
2023-03-05T10:33:16.890Z,3.50
2023-03-05T10:36:04.842Z,3.60
2023-03-05T10:38:56.950Z,3.60
2023-03-05T10:41:32.288Z,3.60
2023-03-05T10:44:07.137Z,3.70
2023-03-05T10:46:38.848Z,3.80
2023-03-05T10:49:18.686Z,3.80
2023-03-05T10:51:53.180Z,3.80
2023-03-05T10:54:26.533Z,3.80
2023-03-05T10:57:17.721Z,3.80
2023-03-05T10:59:49.713Z,3.70
2023-03-05T11:02:20.652Z,3.70
2023-03-05T11:04:49.674Z,3.70
2023-03-05T11:07:39.752Z,3.60
2023-03-05T11:10:21.401Z,3.60
2023-03-05T11:12:50.061Z,3.60
2023-03-05T11:15:31.117Z,3.60
2023-03-05T11:18:17.917Z,3.50
2023-03-05T11:20:48.924Z,3.40
2023-03-05T11:23:20.846Z,3.30
2023-03-05T11:25:58.746Z,3.40
2023-03-05T11:28:33.315Z,3.40
2023-03-05T11:31:21.316Z,3.40
2023-03-05T11:33:59.432Z,3.40
2023-03-05T11:36:31.416Z,3.30
2023-03-05T11:39:02.247Z,3.30
2023-03-05T11:41:38.407Z,3.30
2023-03-05T11:44:13.867Z,3.20
2023-03-05T11:46:45.837Z,3.10
2023-03-05T11:49:19.677Z,3.00
2023-03-05T11:51:57.442Z,3.00
2023-03-05T11:54:31.697Z,3.00
2023-03-05T11:57:03.249Z,3.00
2023-03-05T11:59:36.158Z,3.00
2023-03-05T12:02:05.073Z,3.20
2023-03-05T12:04:36.477Z,3.10
2023-03-05T12:07:05.914Z,3.10
2023-03-05T12:09:42.247Z,3.20
2023-03-05T12:12:19.732Z,3.10
2023-03-05T12:14:53.359Z,3.10
2023-03-05T12:17:27.927Z,2.90
2023-03-05T12:20:05.007Z,2.80
2023-03-05T12:22:37.573Z,2.70
2023-03-05T12:25:27.583Z,2.60
2023-03-05T12:27:56.047Z,2.70
2023-03-05T12:30:55.623Z,2.70
2023-03-05T12:33:36.043Z,2.60
2023-03-05T12:36:38.189Z,2.40
2023-03-05T12:39:49.748Z,2.30
2023-03-05T12:42:48.904Z,2.20
2023-03-05T12:45:41.446Z,2.30
2023-03-05T12:48:45.244Z,2.20
2023-03-05T12:51:34.333Z,2.20
2023-03-05T12:54:29.874Z,2.20
2023-03-05T12:57:00.947Z,2.10
2023-03-05T12:59:43.661Z,2.10
2023-03-05T13:02:23.633Z,2.10
2023-03-05T13:04:58.499Z,2.10
2023-03-05T13:07:29.243Z,2.10
2023-03-05T13:10:00.867Z,2.10
2023-03-05T13:12:31.095Z,2.20
2023-03-05T13:15:02.638Z,2.30
2023-03-05T13:17:39.215Z,2.30
2023-03-05T13:20:42.774Z,2.30
2023-03-05T13:23:18.295Z,2.20
2023-03-05T13:26:01.733Z,2.20
2023-03-05T13:28:33.408Z,2.20
2023-03-05T13:31:04.338Z,2.30
2023-03-05T13:33:34.769Z,2.30
2023-03-05T13:36:03.786Z,2.30
2023-03-05T13:38:37.053Z,2.30
2023-03-05T13:41:24.043Z,2.40
2023-03-05T13:43:54.065Z,2.40
2023-03-05T13:46:27.015Z,2.40
2023-03-05T13:48:55.478Z,2.40
2023-03-05T13:51:23.916Z,2.50
2023-03-05T13:53:52.839Z,2.50
2023-03-05T13:56:22.833Z,2.50
2023-03-05T13:58:53.442Z,2.40
2023-03-05T14:01:31.000Z,2.40
2023-03-05T14:04:03.197Z,2.50
2023-03-05T14:06:32.295Z,2.40
2023-03-05T14:09:06.435Z,2.30
2023-03-05T14:11:36.995Z,2.30
2023-03-05T14:14:16.607Z,2.40
2023-03-05T14:16:45.161Z,2.30
2023-03-05T14:19:34.883Z,2.30
2023-03-05T14:22:03.612Z,2.30
2023-03-05T14:24:32.246Z,2.30
2023-03-05T14:27:15.743Z,2.40
2023-03-05T14:29:47.349Z,2.40
2023-03-05T14:32:24.668Z,2.50
2023-03-05T14:34:58.081Z,2.40
2023-03-05T14:37:30.858Z,2.50
2023-03-05T14:40:05.747Z,2.40
2023-03-05T14:42:39.021Z,2.50
2023-03-05T14:45:15.871Z,2.60
2023-03-05T14:47:44.376Z,2.60
2023-03-05T14:50:16.799Z,2.60
2023-03-05T14:52:46.252Z,2.60
2023-03-05T14:55:18.542Z,2.60
2023-03-05T14:57:51.558Z,2.60
2023-03-05T15:00:22.615Z,2.60
2023-03-05T15:02:51.524Z,2.60
2023-03-05T15:05:20.916Z,2.50
2023-03-05T15:07:49.761Z,2.50
2023-03-05T15:10:19.477Z,2.50
2023-03-05T15:12:53.023Z,2.40
2023-03-05T15:15:22.761Z,2.40
2023-03-05T15:17:55.047Z,2.30
2023-03-05T15:20:25.454Z,2.20
2023-03-05T15:22:54.055Z,2.30
2023-03-05T15:25:23.807Z,2.20
2023-03-05T15:27:53.788Z,2.20
2023-03-05T15:30:24.231Z,2.20
2023-03-05T15:32:54.052Z,2.20
2023-03-05T15:35:23.258Z,2.10
2023-03-05T15:37:51.586Z,2.10
2023-03-05T15:40:21.158Z,2.10
2023-03-05T15:42:49.658Z,2.00
2023-03-05T15:45:19.516Z,2.00
2023-03-05T15:47:51.023Z,2.00
2023-03-05T15:50:20.457Z,1.90
2023-03-05T15:52:49.227Z,1.90
2023-03-05T15:55:18.586Z,1.90
2023-03-05T15:57:48.876Z,1.80
2023-03-05T16:00:22.616Z,1.90
2023-03-05T16:02:52.089Z,1.80
2023-03-05T16:05:22.999Z,1.70
2023-03-05T16:07:53.547Z,1.60
2023-03-05T16:10:25.480Z,1.50
2023-03-05T16:12:58.563Z,1.50
2023-03-05T16:15:28.358Z,1.50
2023-03-05T16:17:58.749Z,1.40
2023-03-05T16:20:27.398Z,1.40
2023-03-05T16:22:55.686Z,1.50
2023-03-05T16:25:24.116Z,1.40
2023-03-05T16:27:52.338Z,1.40
2023-03-05T16:30:21.057Z,1.40
2023-03-05T16:32:53.530Z,1.30
2023-03-05T16:35:22.357Z,1.30
2023-03-05T16:37:50.829Z,1.30
2023-03-05T16:40:19.834Z,1.30
2023-03-05T16:42:48.218Z,1.30
2023-03-05T16:45:16.611Z,1.30
2023-03-05T16:47:47.144Z,1.20
2023-03-05T16:50:16.824Z,1.20
2023-03-05T16:52:45.094Z,1.20
2023-03-05T16:55:13.476Z,1.20
2023-03-05T16:57:42.139Z,1.20
2023-03-05T17:00:11.966Z,1.20
2023-03-05T17:02:42.500Z,1.20
2023-03-05T17:05:13.875Z,1.10
2023-03-05T17:07:45.468Z,1.10
2023-03-05T17:10:14.053Z,1.10
2023-03-05T17:12:43.709Z,1.00
2023-03-05T17:15:14.438Z,1.00
2023-03-05T17:17:42.705Z,0.90
2023-03-05T17:20:13.205Z,0.90
2023-03-05T17:22:41.617Z,0.90
2023-03-05T17:25:13.747Z,0.90
2023-03-05T17:27:42.197Z,0.80
2023-03-05T17:30:12.991Z,0.80
2023-03-05T17:32:43.651Z,0.70
2023-03-05T17:35:18.938Z,0.60
2023-03-05T17:37:47.540Z,0.60
2023-03-05T17:40:18.112Z,0.60
2023-03-05T17:42:46.436Z,0.60
2023-03-05T17:45:15.166Z,0.50
2023-03-05T17:47:43.486Z,0.50
2023-03-05T17:50:13.576Z,0.50
2023-03-05T17:52:42.474Z,0.40
2023-03-05T17:55:13.922Z,0.40
2023-03-05T17:57:45.251Z,0.40
2023-03-05T18:00:17.503Z,0.40
2023-03-05T18:02:46.037Z,0.40
2023-03-05T18:05:15.282Z,0.30
2023-03-05T18:07:43.997Z,0.30
2023-03-05T18:10:13.772Z,0.30
2023-03-05T18:12:46.675Z,0.30
2023-03-05T18:15:18.472Z,0.30
2023-03-05T18:17:46.816Z,0.20
2023-03-05T18:20:26.652Z,0.20
2023-03-05T18:22:55.140Z,0.20
2023-03-05T18:25:25.852Z,0.20
2023-03-05T18:27:55.705Z,0.10
2023-03-05T18:30:23.982Z,0.20
2023-03-05T18:32:52.509Z,0.10
2023-03-05T18:35:20.929Z,0.00
2023-03-05T18:37:49.241Z,0.00
2023-03-05T18:40:19.781Z,0.00
2023-03-05T18:42:48.298Z,-0.10
2023-03-05T18:45:19.758Z,-0.10
2023-03-05T18:47:49.155Z,-0.10
2023-03-05T18:50:19.360Z,-0.10
2023-03-05T18:52:48.030Z,-0.10
2023-03-05T18:55:17.189Z,-0.10
2023-03-05T18:57:49.224Z,-0.10
2023-03-05T19:00:20.906Z,-0.10
2023-03-05T19:02:49.400Z,-0.20
2023-03-05T19:05:20.866Z,-0.20
2023-03-05T19:07:50.023Z,-0.20
2023-03-05T19:10:19.155Z,-0.30
2023-03-05T19:12:51.049Z,-0.30
2023-03-05T19:15:20.941Z,-0.30
2023-03-05T19:17:49.756Z,-0.30
2023-03-05T19:20:19.070Z,-0.40
2023-03-05T19:22:50.961Z,-0.40
2023-03-05T19:25:19.510Z,-0.40
2023-03-05T19:27:47.936Z,-0.40
2023-03-05T19:30:17.125Z,-0.50
2023-03-05T19:32:49.775Z,-0.50
2023-03-05T19:35:18.938Z,-0.50
2023-03-05T19:37:47.354Z,-0.60
2023-03-05T19:40:16.105Z,-0.60
2023-03-05T19:42:44.462Z,-0.60
2023-03-05T19:45:13.036Z,-0.70
2023-03-05T19:47:41.414Z,-0.70
2023-03-05T19:50:14.866Z,-0.70
2023-03-05T19:52:43.234Z,-0.70
2023-03-05T19:55:12.051Z,-0.70
2023-03-05T19:57:40.397Z,-0.70
2023-03-05T20:00:10.176Z,-0.70
2023-03-05T20:02:38.472Z,-0.70
2023-03-05T20:05:11.468Z,-0.80
2023-03-05T20:07:39.795Z,-0.70
2023-03-05T20:10:08.812Z,-0.70
2023-03-05T20:12:39.273Z,-0.70
2023-03-05T20:15:10.626Z,-0.70
2023-03-05T20:17:38.926Z,-0.80
2023-03-05T20:20:08.820Z,-0.80
2023-03-05T20:22:38.521Z,-0.80
2023-03-05T20:25:11.120Z,-0.90
2023-03-05T20:27:39.659Z,-0.90
2023-03-05T20:30:12.100Z,-0.90
2023-03-05T20:32:41.011Z,-0.90
2023-03-05T20:35:13.777Z,-1.00
2023-03-05T20:37:50.135Z,-1.00
2023-03-05T20:40:19.114Z,-1.00
2023-03-05T20:42:47.422Z,-1.00
2023-03-05T20:45:15.965Z,-0.90
2023-03-05T20:47:46.474Z,-1.00
2023-03-05T20:50:16.386Z,-1.00
2023-03-05T20:52:46.155Z,-1.00
2023-03-05T20:55:14.600Z,-1.10
2023-03-05T20:57:44.204Z,-1.10
2023-03-05T21:00:13.825Z,-1.10
2023-03-05T21:02:42.240Z,-1.10
2023-03-05T21:05:12.614Z,-1.10
2023-03-05T21:07:40.991Z,-1.10
2023-03-05T21:10:16.371Z,-1.20
2023-03-05T21:12:44.835Z,-1.20
2023-03-05T21:15:14.996Z,-1.10
2023-03-05T21:17:44.113Z,-1.20
2023-03-05T21:20:15.050Z,-1.20
2023-03-05T21:22:43.390Z,-1.30
2023-03-05T21:25:21.019Z,-1.30
2023-03-05T21:27:51.526Z,-1.30
2023-03-05T21:30:20.403Z,-1.30
2023-03-05T21:32:49.960Z,-1.30
2023-03-05T21:35:20.381Z,-1.30
2023-03-05T21:37:52.714Z,-1.40
2023-03-05T21:40:23.295Z,-1.40
2023-03-05T21:42:52.847Z,-1.40
2023-03-05T21:45:23.767Z,-1.40
2023-03-05T21:47:52.898Z,-1.40
2023-03-05T21:50:22.292Z,-1.40
2023-03-05T21:52:51.254Z,-1.40
2023-03-05T21:55:24.174Z,-1.40
2023-03-05T21:57:52.520Z,-1.40
2023-03-05T22:00:23.202Z,-1.40
2023-03-05T22:02:51.511Z,-1.40
2023-03-05T22:05:20.288Z,-1.40
2023-03-05T22:07:48.574Z,-1.30
2023-03-05T22:10:19.349Z,-1.30
2023-03-05T22:12:56.736Z,-1.20
2023-03-05T22:15:26.906Z,-1.20
2023-03-05T22:17:55.201Z,-1.20
2023-03-05T22:20:23.617Z,-1.20
2023-03-05T22:22:51.872Z,-1.20
2023-03-05T22:25:20.381Z,-1.10
2023-03-05T22:27:50.070Z,-1.10
2023-03-05T22:30:21.518Z,-1.10
2023-03-05T22:32:49.802Z,-1.10
2023-03-05T22:35:18.523Z,-1.10
2023-03-05T22:37:47.027Z,-1.10
2023-03-05T22:40:17.561Z,-1.10
2023-03-05T22:42:46.354Z,-1.10
2023-03-05T22:45:18.657Z,-1.10
2023-03-05T22:47:49.476Z,-1.10
2023-03-05T22:50:18.458Z,-1.10
2023-03-05T22:52:46.785Z,-1.10
2023-03-05T22:55:17.169Z,-1.10
2023-03-05T22:57:46.089Z,-1.20
2023-03-05T23:00:18.319Z,-1.20
2023-03-05T23:02:46.815Z,-1.30
2023-03-05T23:05:15.480Z,-1.30
2023-03-05T23:07:44.885Z,-1.20
2023-03-05T23:10:16.260Z,-1.30
2023-03-05T23:12:49.417Z,-1.30
2023-03-05T23:15:21.441Z,-1.40
2023-03-05T23:17:49.833Z,-1.40
2023-03-05T23:20:20.950Z,-1.40
2023-03-05T23:22:52.778Z,-1.40
2023-03-05T23:25:21.492Z,-1.50
2023-03-05T23:27:50.058Z,-1.40
2023-03-05T23:30:21.309Z,-1.50
2023-03-05T23:32:52.233Z,-1.50
2023-03-05T23:35:23.118Z,-1.30
2023-03-05T23:37:51.797Z,-1.40
2023-03-05T23:40:22.549Z,-1.50
2023-03-05T23:42:51.328Z,-1.50
2023-03-05T23:45:22.696Z,-1.50
2023-03-05T23:47:52.761Z,-1.60
2023-03-05T23:50:26.062Z,-1.60
2023-03-05T23:52:55.411Z,-1.60
2023-03-05T23:55:25.469Z,-1.60
2023-03-05T23:57:54.116Z,-1.60
